This is the latest recevied weather packets stored in our database for station/object OM8AKX-12. If no packets are shown the sender has not sent any weather packets the latest 10 day(s).
| Time | Temp. | Humidity | Pressure | Rain* | Wind** | Luminosity | Snow |
|---|---|---|---|---|---|---|---|
| 1778086515 | 22.22° C | 35% | 1004.9 hPa | - | - | - | - |
| 1778085615 | 22.78° C | 34% | 1004.9 hPa | - | - | - | - |
| 1778084714 | 22.22° C | 35% | 1004.8 hPa | - | - | - | - |
| 1778082914 | 22.78° C | 35% | 1004.9 hPa | - | - | - | - |
| 1778082014 | 23.89° C | 33% | 1005 hPa | - | - | - | - |
| 1778081114 | 25.56° C | 31% | 1005 hPa | - | - | - | - |
| 1778080214 | 25.56° C | 31% | 1005.1 hPa | - | - | - | - |
| 1778079314 | 25.56° C | 28% | 1005.2 hPa | - | - | - | - |
| 1778078414 | 25° C | 31% | 1005.3 hPa | - | - | - | - |
| 1778077514 | 23.33° C | 35% | 1005.5 hPa | - | - | - | - |
| 1778076614 | 23.33° C | 35% | 1005.4 hPa | - | - | - | - |
| 1778075714 | 24.44° C | 33% | 1005.3 hPa | - | - | - | - |
| 1778074814 | 24.44° C | 32% | 1005.5 hPa | - | - | - | - |
| 1778073913 | 25.56° C | 30% | 1005.4 hPa | - | - | - | - |
| 1778073013 | 27.78° C | 29% | 1005.4 hPa | - | - | - | - |
| 1778072113 | 25.56° C | 32% | 1005.5 hPa | - | - | - | - |
| 1778071216 | 25.56° C | 32% | 1005.7 hPa | - | - | - | - |
| 1778070312 | 25° C | 34% | 1005.8 hPa | - | - | - | - |
| 1778069412 | 26.67° C | 32% | 1005.9 hPa | - | - | - | - |
| 1778068512 | 25° C | 34% | 1005.9 hPa | - | - | - | - |
| 1778067612 | 26.11° C | 33% | 1006.1 hPa | - | - | - | - |
| 1778066712 | 24.44° C | 34% | 1006.2 hPa | - | - | - | - |
| 1778065812 | 25.56° C | 31% | 1006.3 hPa | - | - | - | - |
| 1778064912 | 24.44° C | 32% | 1006.3 hPa | - | - | - | - |
| 1778064012 | 24.44° C | 35% | 1006.2 hPa | - | - | - | - |
* Rain since midnight (hover to see other rain measurements)
** Current wind speed in m/s (hover to see current wind gust speed)